<?xml version="1.0" encoding="UTF-8" standalone="no" ?>
<gpx xmlns="http://www.topografix.com/GPX/1/1" xmlns:xsi="http://www.w3.org/2001/XMLSchema-instance" xsi:schemaLocation="http://www.topografix.com/GPX/1/1 http://www.topografix.com/GPX/1/1/gpx.xsd" version="1.1" creator="VisuGPX - https://www.visugpx.com">
  <metadata>
    <name>13166383-Tour cyclo HL</name>
  </metadata>
  <trk>
    <name><![CDATA[13166383-Tour cyclo HL]]></name>
    <trkseg>
      <trkpt lat="45.0331" lon="4.24828">
        <ele>1117</ele>
        <time>2021-06-02T07:18:57Z</time>
      </trkpt>
      <trkpt lat="45.03318" lon="4.24833">
        <ele>1116</ele>
        <time>2021-06-02T07:18:59Z</time>
      </trkpt>
      <trkpt lat="45.03317" lon="4.24811">
        <ele>1116</ele>
        <time>2021-06-02T07:19:01Z</time>
      </trkpt>
      <trkpt lat="45.03304" lon="4.24816">
        <ele>1117</ele>
        <time>2021-06-02T07:19:04Z</time>
      </trkpt>
      <trkpt lat="45.0329" lon="4.24815">
        <ele>1117</ele>
        <time>2021-06-02T07:19:06Z</time>
      </trkpt>
      <trkpt lat="45.03277" lon="4.24807">
        <ele>1118</ele>
        <time>2021-06-02T07:19:09Z</time>
      </trkpt>
      <trkpt lat="45.03249" lon="4.24801">
        <ele>1119</ele>
        <time>2021-06-02T07:19:14Z</time>
      </trkpt>
      <trkpt lat="45.03216" lon="4.24796">
        <ele>1119</ele>
        <time>2021-06-02T07:19:20Z</time>
      </trkpt>
      <trkpt lat="45.0319" lon="4.24792">
        <ele>1120</ele>
        <time>2021-06-02T07:19:24Z</time>
      </trkpt>
      <trkpt lat="45.03176" lon="4.24787">
        <ele>1120</ele>
        <time>2021-06-02T07:19:27Z</time>
      </trkpt>
      <trkpt lat="45.02916" lon="4.24669">
        <ele>1120</ele>
        <time>2021-06-02T07:20:15Z</time>
      </trkpt>
      <trkpt lat="45.02842" lon="4.24651">
        <ele>1118</ele>
        <time>2021-06-02T07:20:29Z</time>
      </trkpt>
      <trkpt lat="45.02822" lon="4.24642">
        <ele>1118</ele>
        <time>2021-06-02T07:20:33Z</time>
      </trkpt>
      <trkpt lat="45.02729" lon="4.24583">
        <ele>1117</ele>
        <time>2021-06-02T07:20:51Z</time>
      </trkpt>
      <trkpt lat="45.02683" lon="4.24556">
        <ele>1115</ele>
        <time>2021-06-02T07:21:00Z</time>
      </trkpt>
      <trkpt lat="45.02647" lon="4.24542">
        <ele>1115</ele>
        <time>2021-06-02T07:21:06Z</time>
      </trkpt>
      <trkpt lat="45.02532" lon="4.24505">
        <ele>1112</ele>
        <time>2021-06-02T07:21:27Z</time>
      </trkpt>
      <trkpt lat="45.02513" lon="4.24495">
        <ele>1111</ele>
        <time>2021-06-02T07:21:31Z</time>
      </trkpt>
      <trkpt lat="45.02494" lon="4.24481">
        <ele>1110</ele>
        <time>2021-06-02T07:21:35Z</time>
      </trkpt>
      <trkpt lat="45.02479" lon="4.24464">
        <ele>1109</ele>
        <time>2021-06-02T07:21:38Z</time>
      </trkpt>
      <trkpt lat="45.02394" lon="4.24351">
        <ele>1107</ele>
        <time>2021-06-02T07:21:59Z</time>
      </trkpt>
      <trkpt lat="45.02359" lon="4.2432">
        <ele>1105</ele>
        <time>2021-06-02T07:22:06Z</time>
      </trkpt>
      <trkpt lat="45.02344" lon="4.24311">
        <ele>1105</ele>
        <time>2021-06-02T07:22:09Z</time>
      </trkpt>
      <trkpt lat="45.02326" lon="4.24306">
        <ele>1104</ele>
        <time>2021-06-02T07:22:12Z</time>
      </trkpt>
      <trkpt lat="45.0231" lon="4.24304">
        <ele>1103</ele>
        <time>2021-06-02T07:22:15Z</time>
      </trkpt>
      <trkpt lat="45.02291" lon="4.24308">
        <ele>1102</ele>
        <time>2021-06-02T07:22:19Z</time>
      </trkpt>
      <trkpt lat="45.02271" lon="4.24317">
        <ele>1100</ele>
        <time>2021-06-02T07:22:22Z</time>
      </trkpt>
      <trkpt lat="45.02206" lon="4.24358">
        <ele>1094</ele>
        <time>2021-06-02T07:22:35Z</time>
      </trkpt>
      <trkpt lat="45.02187" lon="4.24366">
        <ele>1093</ele>
        <time>2021-06-02T07:22:39Z</time>
      </trkpt>
      <trkpt lat="45.02175" lon="4.24369">
        <ele>1092</ele>
        <time>2021-06-02T07:22:41Z</time>
      </trkpt>
      <trkpt lat="45.0217" lon="4.2437">
        <ele>1092</ele>
        <time>2021-06-02T07:22:42Z</time>
      </trkpt>
      <trkpt lat="45.02153" lon="4.24369">
        <ele>1091</ele>
        <time>2021-06-02T07:22:45Z</time>
      </trkpt>
      <trkpt lat="45.02135" lon="4.24364">
        <ele>1090</ele>
        <time>2021-06-02T07:22:48Z</time>
      </trkpt>
      <trkpt lat="45.02118" lon="4.24356">
        <ele>1089</ele>
        <time>2021-06-02T07:22:51Z</time>
      </trkpt>
      <trkpt lat="45.02103" lon="4.24346">
        <ele>1089</ele>
        <time>2021-06-02T07:22:54Z</time>
      </trkpt>
      <trkpt lat="45.0209" lon="4.24332">
        <ele>1089</ele>
        <time>2021-06-02T07:22:57Z</time>
      </trkpt>
      <trkpt lat="45.02083" lon="4.24323">
        <ele>1088</ele>
        <time>2021-06-02T07:22:59Z</time>
      </trkpt>
      <trkpt lat="45.02009" lon="4.24167">
        <ele>1082</ele>
        <time>2021-06-02T07:23:22Z</time>
      </trkpt>
      <trkpt lat="45.01993" lon="4.24143">
        <ele>1080</ele>
        <time>2021-06-02T07:23:26Z</time>
      </trkpt>
      <trkpt lat="45.01978" lon="4.24124">
        <ele>1078</ele>
        <time>2021-06-02T07:23:30Z</time>
      </trkpt>
      <trkpt lat="45.01902" lon="4.24048">
        <ele>1072</ele>
        <time>2021-06-02T07:23:47Z</time>
      </trkpt>
      <trkpt lat="45.01872" lon="4.24016">
        <ele>1069</ele>
        <time>2021-06-02T07:23:53Z</time>
      </trkpt>
      <trkpt lat="45.01854" lon="4.23999">
        <ele>1068</ele>
        <time>2021-06-02T07:23:57Z</time>
      </trkpt>
      <trkpt lat="45.01834" lon="4.23984">
        <ele>1066</ele>
        <time>2021-06-02T07:24:01Z</time>
      </trkpt>
      <trkpt lat="45.01801" lon="4.23963">
        <ele>1063</ele>
        <time>2021-06-02T07:24:08Z</time>
      </trkpt>
      <trkpt lat="45.01795" lon="4.23958">
        <ele>1063</ele>
        <time>2021-06-02T07:24:09Z</time>
      </trkpt>
      <trkpt lat="45.01783" lon="4.23946">
        <ele>1062</ele>
        <time>2021-06-02T07:24:11Z</time>
      </trkpt>
      <trkpt lat="45.01768" lon="4.23923">
        <ele>1061</ele>
        <time>2021-06-02T07:24:15Z</time>
      </trkpt>
      <trkpt lat="45.01751" lon="4.23893">
        <ele>1060</ele>
        <time>2021-06-02T07:24:20Z</time>
      </trkpt>
      <trkpt lat="45.01741" lon="4.23879">
        <ele>1059</ele>
        <time>2021-06-02T07:24:23Z</time>
      </trkpt>
      <trkpt lat="45.01729" lon="4.23867">
        <ele>1058</ele>
        <time>2021-06-02T07:24:25Z</time>
      </trkpt>
      <trkpt lat="45.01644" lon="4.23798">
        <ele>1054</ele>
        <time>2021-06-02T07:24:43Z</time>
      </trkpt>
      <trkpt lat="45.01623" lon="4.23781">
        <ele>1054</ele>
        <time>2021-06-02T07:24:47Z</time>
      </trkpt>
      <trkpt lat="45.01617" lon="4.2378">
        <ele>1054</ele>
        <time>2021-06-02T07:24:48Z</time>
      </trkpt>
      <trkpt lat="45.01606" lon="4.23781">
        <ele>1054</ele>
        <time>2021-06-02T07:24:50Z</time>
      </trkpt>
      <trkpt lat="45.01599" lon="4.23785">
        <ele>1054</ele>
        <time>2021-06-02T07:24:51Z</time>
      </trkpt>
      <trkpt lat="45.013" lon="4.24168">
        <ele>1057</ele>
        <time>2021-06-02T07:26:03Z</time>
      </trkpt>
      <trkpt lat="45.01283" lon="4.24186">
        <ele>1057</ele>
        <time>2021-06-02T07:26:07Z</time>
      </trkpt>
      <trkpt lat="45.01251" lon="4.24205">
        <ele>1059</ele>
        <time>2021-06-02T07:26:13Z</time>
      </trkpt>
      <trkpt lat="45.01233" lon="4.24209">
        <ele>1059</ele>
        <time>2021-06-02T07:26:16Z</time>
      </trkpt>
      <trkpt lat="45.01215" lon="4.24211">
        <ele>1060</ele>
        <time>2021-06-02T07:26:20Z</time>
      </trkpt>
      <trkpt lat="45.01195" lon="4.24208">
        <ele>1061</ele>
        <time>2021-06-02T07:26:23Z</time>
      </trkpt>
      <trkpt lat="45.01162" lon="4.24198">
        <ele>1063</ele>
        <time>2021-06-02T07:26:29Z</time>
      </trkpt>
      <trkpt lat="45.01057" lon="4.24141">
        <ele>1066</ele>
        <time>2021-06-02T07:26:49Z</time>
      </trkpt>
      <trkpt lat="45.01002" lon="4.24115">
        <ele>1062</ele>
        <time>2021-06-02T07:26:59Z</time>
      </trkpt>
      <trkpt lat="45.00917" lon="4.24083">
        <ele>1060</ele>
        <time>2021-06-02T07:27:15Z</time>
      </trkpt>
      <trkpt lat="45.00857" lon="4.24067">
        <ele>1064</ele>
        <time>2021-06-02T07:27:26Z</time>
      </trkpt>
      <trkpt lat="45.00829" lon="4.24063">
        <ele>1065</ele>
        <time>2021-06-02T07:27:31Z</time>
      </trkpt>
      <trkpt lat="45.00639" lon="4.24051">
        <ele>1065</ele>
        <time>2021-06-02T07:28:05Z</time>
      </trkpt>
      <trkpt lat="45.00625" lon="4.2405">
        <ele>1065</ele>
        <time>2021-06-02T07:28:07Z</time>
      </trkpt>
      <trkpt lat="45.00515" lon="4.24043">
        <ele>1068</ele>
        <time>2021-06-02T07:28:27Z</time>
      </trkpt>
      <trkpt lat="45.00447" lon="4.2403">
        <ele>1069</ele>
        <time>2021-06-02T07:28:39Z</time>
      </trkpt>
      <trkpt lat="45.00222" lon="4.23981">
        <ele>1067</ele>
        <time>2021-06-02T07:29:20Z</time>
      </trkpt>
      <trkpt lat="45.00188" lon="4.2398">
        <ele>1067</ele>
        <time>2021-06-02T07:29:26Z</time>
      </trkpt>
      <trkpt lat="44.99961" lon="4.24002">
        <ele>1079</ele>
        <time>2021-06-02T07:30:06Z</time>
      </trkpt>
      <trkpt lat="44.99939" lon="4.24005">
        <ele>1081</ele>
        <time>2021-06-02T07:30:10Z</time>
      </trkpt>
      <trkpt lat="44.99924" lon="4.24011">
        <ele>1082</ele>
        <time>2021-06-02T07:30:13Z</time>
      </trkpt>
      <trkpt lat="44.99908" lon="4.24021">
        <ele>1083</ele>
        <time>2021-06-02T07:30:16Z</time>
      </trkpt>
      <trkpt lat="44.99894" lon="4.24034">
        <ele>1083</ele>
        <time>2021-06-02T07:30:19Z</time>
      </trkpt>
      <trkpt lat="44.99881" lon="4.24049">
        <ele>1084</ele>
        <time>2021-06-02T07:30:22Z</time>
      </trkpt>
      <trkpt lat="44.99856" lon="4.24087">
        <ele>1083</ele>
        <time>2021-06-02T07:30:28Z</time>
      </trkpt>
      <trkpt lat="44.99845" lon="4.24099">
        <ele>1083</ele>
        <time>2021-06-02T07:30:31Z</time>
      </trkpt>
      <trkpt lat="44.99835" lon="4.24109">
        <ele>1083</ele>
        <time>2021-06-02T07:30:33Z</time>
      </trkpt>
      <trkpt lat="44.99793" lon="4.2413">
        <ele>1084</ele>
        <time>2021-06-02T07:30:41Z</time>
      </trkpt>
      <trkpt lat="44.99757" lon="4.24142">
        <ele>1085</ele>
        <time>2021-06-02T07:30:48Z</time>
      </trkpt>
      <trkpt lat="44.99698" lon="4.24151">
        <ele>1084</ele>
        <time>2021-06-02T07:30:58Z</time>
      </trkpt>
      <trkpt lat="44.99677" lon="4.24152">
        <ele>1084</ele>
        <time>2021-06-02T07:31:02Z</time>
      </trkpt>
      <trkpt lat="44.99666" lon="4.2415">
        <ele>1084</ele>
        <time>2021-06-02T07:31:04Z</time>
      </trkpt>
      <trkpt lat="44.99611" lon="4.24121">
        <ele>1081</ele>
        <time>2021-06-02T07:31:14Z</time>
      </trkpt>
      <trkpt lat="44.99594" lon="4.24107">
        <ele>1081</ele>
        <time>2021-06-02T07:31:18Z</time>
      </trkpt>
      <trkpt lat="44.99578" lon="4.24092">
        <ele>1081</ele>
        <time>2021-06-02T07:31:21Z</time>
      </trkpt>
      <trkpt lat="44.99564" lon="4.24075">
        <ele>1081</ele>
        <time>2021-06-02T07:31:25Z</time>
      </trkpt>
      <trkpt lat="44.9954" lon="4.24039">
        <ele>1083</ele>
        <time>2021-06-02T07:31:31Z</time>
      </trkpt>
      <trkpt lat="44.99511" lon="4.2399">
        <ele>1085</ele>
        <time>2021-06-02T07:31:39Z</time>
      </trkpt>
      <trkpt lat="44.99498" lon="4.23972">
        <ele>1086</ele>
        <time>2021-06-02T07:31:42Z</time>
      </trkpt>
      <trkpt lat="44.99483" lon="4.23964">
        <ele>1086</ele>
        <time>2021-06-02T07:31:45Z</time>
      </trkpt>
      <trkpt lat="44.99465" lon="4.23961">
        <ele>1086</ele>
        <time>2021-06-02T07:31:48Z</time>
      </trkpt>
      <trkpt lat="44.99431" lon="4.23962">
        <ele>1085</ele>
        <time>2021-06-02T07:31:54Z</time>
      </trkpt>
      <trkpt lat="44.99413" lon="4.23966">
        <ele>1084</ele>
        <time>2021-06-02T07:31:57Z</time>
      </trkpt>
      <trkpt lat="44.99376" lon="4.23978">
        <ele>1083</ele>
        <time>2021-06-02T07:32:04Z</time>
      </trkpt>
      <trkpt lat="44.99278" lon="4.24015">
        <ele>1082</ele>
        <time>2021-06-02T07:32:22Z</time>
      </trkpt>
      <trkpt lat="44.99258" lon="4.24026">
        <ele>1082</ele>
        <time>2021-06-02T07:32:26Z</time>
      </trkpt>
      <trkpt lat="44.99242" lon="4.24038">
        <ele>1082</ele>
        <time>2021-06-02T07:32:29Z</time>
      </trkpt>
      <trkpt lat="44.99223" lon="4.24057">
        <ele>1082</ele>
        <time>2021-06-02T07:32:33Z</time>
      </trkpt>
      <trkpt lat="44.99156" lon="4.24133">
        <ele>1079</ele>
        <time>2021-06-02T07:32:49Z</time>
      </trkpt>
      <trkpt lat="44.99141" lon="4.24145">
        <ele>1079</ele>
        <time>2021-06-02T07:32:52Z</time>
      </trkpt>
      <trkpt lat="44.99123" lon="4.24153">
        <ele>1078</ele>
        <time>2021-06-02T07:32:55Z</time>
      </trkpt>
      <trkpt lat="44.99075" lon="4.24167">
        <ele>1079</ele>
        <time>2021-06-02T07:33:04Z</time>
      </trkpt>
      <trkpt lat="44.99051" lon="4.24174">
        <ele>1081</ele>
        <time>2021-06-02T07:33:08Z</time>
      </trkpt>
      <trkpt lat="44.99036" lon="4.24178">
        <ele>1083</ele>
        <time>2021-06-02T07:33:11Z</time>
      </trkpt>
      <trkpt lat="44.99023" lon="4.24179">
        <ele>1084</ele>
        <time>2021-06-02T07:33:13Z</time>
      </trkpt>
      <trkpt lat="44.99014" lon="4.24177">
        <ele>1085</ele>
        <time>2021-06-02T07:33:15Z</time>
      </trkpt>
      <trkpt lat="44.99002" lon="4.24171">
        <ele>1085</ele>
        <time>2021-06-02T07:33:17Z</time>
      </trkpt>
      <trkpt lat="44.98926" lon="4.24103">
        <ele>1088</ele>
        <time>2021-06-02T07:33:33Z</time>
      </trkpt>
      <trkpt lat="44.98906" lon="4.24084">
        <ele>1089</ele>
        <time>2021-06-02T07:33:37Z</time>
      </trkpt>
      <trkpt lat="44.98824" lon="4.23992">
        <ele>1092</ele>
        <time>2021-06-02T07:33:56Z</time>
      </trkpt>
      <trkpt lat="44.98789" lon="4.23959">
        <ele>1093</ele>
        <time>2021-06-02T07:34:04Z</time>
      </trkpt>
      <trkpt lat="44.98778" lon="4.23952">
        <ele>1093</ele>
        <time>2021-06-02T07:34:06Z</time>
      </trkpt>
      <trkpt lat="44.98598" lon="4.23894">
        <ele>1100</ele>
        <time>2021-06-02T07:34:39Z</time>
      </trkpt>
      <trkpt lat="44.98578" lon="4.23888">
        <ele>1101</ele>
        <time>2021-06-02T07:34:42Z</time>
      </trkpt>
      <trkpt lat="44.9854" lon="4.23883">
        <ele>1102</ele>
        <time>2021-06-02T07:34:49Z</time>
      </trkpt>
      <trkpt lat="44.98522" lon="4.23878">
        <ele>1102</ele>
        <time>2021-06-02T07:34:52Z</time>
      </trkpt>
      <trkpt lat="44.98508" lon="4.23872">
        <ele>1102</ele>
        <time>2021-06-02T07:34:55Z</time>
      </trkpt>
      <trkpt lat="44.98478" lon="4.23847">
        <ele>1104</ele>
        <time>2021-06-02T07:35:01Z</time>
      </trkpt>
      <trkpt lat="44.98443" lon="4.23807">
        <ele>1106</ele>
        <time>2021-06-02T07:35:09Z</time>
      </trkpt>
      <trkpt lat="44.98431" lon="4.23798">
        <ele>1106</ele>
        <time>2021-06-02T07:35:11Z</time>
      </trkpt>
      <trkpt lat="44.98417" lon="4.23792">
        <ele>1107</ele>
        <time>2021-06-02T07:35:14Z</time>
      </trkpt>
      <trkpt lat="44.98404" lon="4.23791">
        <ele>1107</ele>
        <time>2021-06-02T07:35:16Z</time>
      </trkpt>
      <trkpt lat="44.98388" lon="4.23793">
        <ele>1108</ele>
        <time>2021-06-02T07:35:19Z</time>
      </trkpt>
      <trkpt lat="44.98261" lon="4.23845">
        <ele>1116</ele>
        <time>2021-06-02T07:35:43Z</time>
      </trkpt>
      <trkpt lat="44.98244" lon="4.23848">
        <ele>1116</ele>
        <time>2021-06-02T07:35:46Z</time>
      </trkpt>
      <trkpt lat="44.98233" lon="4.23847">
        <ele>1117</ele>
        <time>2021-06-02T07:35:48Z</time>
      </trkpt>
      <trkpt lat="44.98222" lon="4.23842">
        <ele>1117</ele>
        <time>2021-06-02T07:35:50Z</time>
      </trkpt>
      <trkpt lat="44.98185" lon="4.2381">
        <ele>1115</ele>
        <time>2021-06-02T07:35:58Z</time>
      </trkpt>
      <trkpt lat="44.98163" lon="4.23798">
        <ele>1114</ele>
        <time>2021-06-02T07:36:02Z</time>
      </trkpt>
      <trkpt lat="44.98135" lon="4.23786">
        <ele>1114</ele>
        <time>2021-06-02T07:36:07Z</time>
      </trkpt>
      <trkpt lat="44.98119" lon="4.23783">
        <ele>1115</ele>
        <time>2021-06-02T07:36:10Z</time>
      </trkpt>
      <trkpt lat="44.98101" lon="4.23783">
        <ele>1116</ele>
        <time>2021-06-02T07:36:13Z</time>
      </trkpt>
      <trkpt lat="44.98082" lon="4.23786">
        <ele>1117</ele>
        <time>2021-06-02T07:36:16Z</time>
      </trkpt>
      <trkpt lat="44.97995" lon="4.23815">
        <ele>1122</ele>
        <time>2021-06-02T07:36:32Z</time>
      </trkpt>
      <trkpt lat="44.97958" lon="4.23823">
        <ele>1123</ele>
        <time>2021-06-02T07:36:39Z</time>
      </trkpt>
      <trkpt lat="44.9792" lon="4.23827">
        <ele>1125</ele>
        <time>2021-06-02T07:36:46Z</time>
      </trkpt>
      <trkpt lat="44.97865" lon="4.23829">
        <ele>1127</ele>
        <time>2021-06-02T07:36:56Z</time>
      </trkpt>
      <trkpt lat="44.97845" lon="4.23826">
        <ele>1127</ele>
        <time>2021-06-02T07:36:59Z</time>
      </trkpt>
      <trkpt lat="44.97819" lon="4.23818">
        <ele>1128</ele>
        <time>2021-06-02T07:37:04Z</time>
      </trkpt>
      <trkpt lat="44.97761" lon="4.23785">
        <ele>1130</ele>
        <time>2021-06-02T07:37:15Z</time>
      </trkpt>
      <trkpt lat="44.97728" lon="4.23764">
        <ele>1132</ele>
        <time>2021-06-02T07:37:21Z</time>
      </trkpt>
      <trkpt lat="44.97721" lon="4.23755">
        <ele>1132</ele>
        <time>2021-06-02T07:37:23Z</time>
      </trkpt>
      <trkpt lat="44.97718" lon="4.23746">
        <ele>1131</ele>
        <time>2021-06-02T07:37:24Z</time>
      </trkpt>
      <trkpt lat="44.97718" lon="4.23736">
        <ele>1131</ele>
        <time>2021-06-02T07:37:26Z</time>
      </trkpt>
      <trkpt lat="44.97723" lon="4.23722">
        <ele>1131</ele>
        <time>2021-06-02T07:37:28Z</time>
      </trkpt>
      <trkpt lat="44.97728" lon="4.23705">
        <ele>1130</ele>
        <time>2021-06-02T07:37:30Z</time>
      </trkpt>
      <trkpt lat="44.97745" lon="4.23658">
        <ele>1130</ele>
        <time>2021-06-02T07:37:37Z</time>
      </trkpt>
      <trkpt lat="44.97752" lon="4.23645">
        <ele>1131</ele>
        <time>2021-06-02T07:37:39Z</time>
      </trkpt>
      <trkpt lat="44.9776" lon="4.23635">
        <ele>1132</ele>
        <time>2021-06-02T07:37:40Z</time>
      </trkpt>
      <trkpt lat="44.97773" lon="4.23627">
        <ele>1133</ele>
        <time>2021-06-02T07:37:43Z</time>
      </trkpt>
      <trkpt lat="44.9779" lon="4.23623">
        <ele>1134</ele>
        <time>2021-06-02T07:37:46Z</time>
      </trkpt>
      <trkpt lat="44.97812" lon="4.2362">
        <ele>1135</ele>
        <time>2021-06-02T07:37:50Z</time>
      </trkpt>
      <trkpt lat="44.97897" lon="4.23612">
        <ele>1135</ele>
        <time>2021-06-02T07:38:05Z</time>
      </trkpt>
      <trkpt lat="44.97931" lon="4.23597">
        <ele>1136</ele>
        <time>2021-06-02T07:38:12Z</time>
      </trkpt>
      <trkpt lat="44.97946" lon="4.23585">
        <ele>1136</ele>
        <time>2021-06-02T07:38:15Z</time>
      </trkpt>
      <trkpt lat="44.97956" lon="4.23575">
        <ele>1137</ele>
        <time>2021-06-02T07:38:17Z</time>
      </trkpt>
      <trkpt lat="44.97968" lon="4.23561">
        <ele>1138</ele>
        <time>2021-06-02T07:38:20Z</time>
      </trkpt>
      <trkpt lat="44.97975" lon="4.23545">
        <ele>1139</ele>
        <time>2021-06-02T07:38:22Z</time>
      </trkpt>
      <trkpt lat="44.97982" lon="4.23524">
        <ele>1140</ele>
        <time>2021-06-02T07:38:25Z</time>
      </trkpt>
      <trkpt lat="44.97987" lon="4.23488">
        <ele>1142</ele>
        <time>2021-06-02T07:38:29Z</time>
      </trkpt>
      <trkpt lat="44.97996" lon="4.23394">
        <ele>1144</ele>
        <time>2021-06-02T07:38:41Z</time>
      </trkpt>
      <trkpt lat="44.97997" lon="4.23361">
        <ele>1145</ele>
        <time>2021-06-02T07:38:46Z</time>
      </trkpt>
      <trkpt lat="44.97991" lon="4.2312">
        <ele>1149</ele>
        <time>2021-06-02T07:39:16Z</time>
      </trkpt>
      <trkpt lat="44.97988" lon="4.23099">
        <ele>1149</ele>
        <time>2021-06-02T07:39:19Z</time>
      </trkpt>
      <trkpt lat="44.97984" lon="4.23081">
        <ele>1150</ele>
        <time>2021-06-02T07:39:21Z</time>
      </trkpt>
      <trkpt lat="44.97976" lon="4.23066">
        <ele>1150</ele>
        <time>2021-06-02T07:39:23Z</time>
      </trkpt>
      <trkpt lat="44.97918" lon="4.22979">
        <ele>1156</ele>
        <time>2021-06-02T07:39:38Z</time>
      </trkpt>
      <trkpt lat="44.97912" lon="4.22968">
        <ele>1156</ele>
        <time>2021-06-02T07:39:40Z</time>
      </trkpt>
      <trkpt lat="44.97905" lon="4.22951">
        <ele>1156</ele>
        <time>2021-06-02T07:39:43Z</time>
      </trkpt>
      <trkpt lat="44.97902" lon="4.22932">
        <ele>1157</ele>
        <time>2021-06-02T07:39:45Z</time>
      </trkpt>
      <trkpt lat="44.97904" lon="4.22909">
        <ele>1157</ele>
        <time>2021-06-02T07:39:48Z</time>
      </trkpt>
      <trkpt lat="44.9791" lon="4.22884">
        <ele>1158</ele>
        <time>2021-06-02T07:39:51Z</time>
      </trkpt>
      <trkpt lat="44.9792" lon="4.22856">
        <ele>1158</ele>
        <time>2021-06-02T07:39:55Z</time>
      </trkpt>
      <trkpt lat="44.97933" lon="4.22827">
        <ele>1160</ele>
        <time>2021-06-02T07:40:00Z</time>
      </trkpt>
      <trkpt lat="44.97947" lon="4.22809">
        <ele>1160</ele>
        <time>2021-06-02T07:40:03Z</time>
      </trkpt>
      <trkpt lat="44.97958" lon="4.22798">
        <ele>1161</ele>
        <time>2021-06-02T07:40:05Z</time>
      </trkpt>
      <trkpt lat="44.97973" lon="4.22786">
        <ele>1161</ele>
        <time>2021-06-02T07:40:08Z</time>
      </trkpt>
      <trkpt lat="44.98003" lon="4.22769">
        <ele>1161</ele>
        <time>2021-06-02T07:40:14Z</time>
      </trkpt>
      <trkpt lat="44.98082" lon="4.22735">
        <ele>1165</ele>
        <time>2021-06-02T07:40:29Z</time>
      </trkpt>
      <trkpt lat="44.98091" lon="4.22733">
        <ele>1166</ele>
        <time>2021-06-02T07:40:30Z</time>
      </trkpt>
      <trkpt lat="44.98102" lon="4.22733">
        <ele>1166</ele>
        <time>2021-06-02T07:40:32Z</time>
      </trkpt>
      <trkpt lat="44.98116" lon="4.22739">
        <ele>1167</ele>
        <time>2021-06-02T07:40:35Z</time>
      </trkpt>
      <trkpt lat="44.98126" lon="4.22745">
        <ele>1167</ele>
        <time>2021-06-02T07:40:37Z</time>
      </trkpt>
      <trkpt lat="44.98174" lon="4.22786">
        <ele>1165</ele>
        <time>2021-06-02T07:40:47Z</time>
      </trkpt>
      <trkpt lat="44.98192" lon="4.228">
        <ele>1166</ele>
        <time>2021-06-02T07:40:51Z</time>
      </trkpt>
      <trkpt lat="44.98209" lon="4.22809">
        <ele>1167</ele>
        <time>2021-06-02T07:40:54Z</time>
      </trkpt>
      <trkpt lat="44.98227" lon="4.22813">
        <ele>1168</ele>
        <time>2021-06-02T07:40:57Z</time>
      </trkpt>
      <trkpt lat="44.98243" lon="4.22814">
        <ele>1170</ele>
        <time>2021-06-02T07:41:00Z</time>
      </trkpt>
      <trkpt lat="44.98272" lon="4.22817">
        <ele>1171</ele>
        <time>2021-06-02T07:41:05Z</time>
      </trkpt>
      <trkpt lat="44.98293" lon="4.22817">
        <ele>1171</ele>
        <time>2021-06-02T07:41:09Z</time>
      </trkpt>
      <trkpt lat="44.98312" lon="4.22812">
        <ele>1172</ele>
        <time>2021-06-02T07:41:12Z</time>
      </trkpt>
      <trkpt lat="44.98389" lon="4.22791">
        <ele>1175</ele>
        <time>2021-06-02T07:41:26Z</time>
      </trkpt>
      <trkpt lat="44.98414" lon="4.22783">
        <ele>1176</ele>
        <time>2021-06-02T07:41:31Z</time>
      </trkpt>
      <trkpt lat="44.98443" lon="4.22774">
        <ele>1177</ele>
        <time>2021-06-02T07:41:36Z</time>
      </trkpt>
      <trkpt lat="44.9846" lon="4.22762">
        <ele>1179</ele>
        <time>2021-06-02T07:41:39Z</time>
      </trkpt>
      <trkpt lat="44.98497" lon="4.2274">
        <ele>1181</ele>
        <time>2021-06-02T07:41:47Z</time>
      </trkpt>
      <trkpt lat="44.98525" lon="4.2272">
        <ele>1181</ele>
        <time>2021-06-02T07:41:52Z</time>
      </trkpt>
      <trkpt lat="44.98558" lon="4.22699">
        <ele>1180</ele>
        <time>2021-06-02T07:41:59Z</time>
      </trkpt>
      <trkpt lat="44.9857" lon="4.22686">
        <ele>1180</ele>
        <time>2021-06-02T07:42:01Z</time>
      </trkpt>
      <trkpt lat="44.98584" lon="4.22666">
        <ele>1181</ele>
        <time>2021-06-02T07:42:05Z</time>
      </trkpt>
      <trkpt lat="44.98592" lon="4.22656">
        <ele>1181</ele>
        <time>2021-06-02T07:42:07Z</time>
      </trkpt>
      <trkpt lat="44.98594" lon="4.22654">
        <ele>1181</ele>
        <time>2021-06-02T07:42:07Z</time>
      </trkpt>
      <trkpt lat="44.98605" lon="4.22656">
        <ele>1181</ele>
        <time>2021-06-02T07:42:09Z</time>
      </trkpt>
      <trkpt lat="44.98624" lon="4.22655">
        <ele>1180</ele>
        <time>2021-06-02T07:42:12Z</time>
      </trkpt>
      <trkpt lat="44.98626" lon="4.22634">
        <ele>1180</ele>
        <time>2021-06-02T07:42:15Z</time>
      </trkpt>
      <trkpt lat="44.98631" lon="4.22613">
        <ele>1180</ele>
        <time>2021-06-02T07:42:18Z</time>
      </trkpt>
      <trkpt lat="44.98616" lon="4.22605">
        <ele>1180</ele>
        <time>2021-06-02T07:42:21Z</time>
      </trkpt>
      <trkpt lat="44.98577" lon="4.22604">
        <ele>1182</ele>
        <time>2021-06-02T07:42:28Z</time>
      </trkpt>
      <trkpt lat="44.98548" lon="4.22611">
        <ele>1182</ele>
        <time>2021-06-02T07:42:33Z</time>
      </trkpt>
      <trkpt lat="44.98544" lon="4.22546">
        <ele>1177</ele>
        <time>2021-06-02T07:42:41Z</time>
      </trkpt>
      <trkpt lat="44.98539" lon="4.22529">
        <ele>1175</ele>
        <time>2021-06-02T07:42:44Z</time>
      </trkpt>
      <trkpt lat="44.98523" lon="4.22543">
        <ele>1176</ele>
        <time>2021-06-02T07:42:47Z</time>
      </trkpt>
      <trkpt lat="44.98515" lon="4.22546">
        <ele>1176</ele>
        <time>2021-06-02T07:42:48Z</time>
      </trkpt>
      <trkpt lat="44.98504" lon="4.22543">
        <ele>1175</ele>
        <time>2021-06-02T07:42:50Z</time>
      </trkpt>
      <trkpt lat="44.98358" lon="4.2243">
        <ele>1173</ele>
        <time>2021-06-02T07:43:20Z</time>
      </trkpt>
      <trkpt lat="44.98339" lon="4.22408">
        <ele>1173</ele>
        <time>2021-06-02T07:43:24Z</time>
      </trkpt>
      <trkpt lat="44.98324" lon="4.22386">
        <ele>1171</ele>
        <time>2021-06-02T07:43:28Z</time>
      </trkpt>
      <trkpt lat="44.98241" lon="4.22219">
        <ele>1158</ele>
        <time>2021-06-02T07:43:54Z</time>
      </trkpt>
      <trkpt lat="44.98217" lon="4.22179">
        <ele>1154</ele>
        <time>2021-06-02T07:44:00Z</time>
      </trkpt>
      <trkpt lat="44.98199" lon="4.22159">
        <ele>1153</ele>
        <time>2021-06-02T07:44:05Z</time>
      </trkpt>
      <trkpt lat="44.98042" lon="4.22025">
        <ele>1136</ele>
        <time>2021-06-02T07:44:37Z</time>
      </trkpt>
      <trkpt lat="44.98021" lon="4.22016">
        <ele>1137</ele>
        <time>2021-06-02T07:44:41Z</time>
      </trkpt>
      <trkpt lat="44.98002" lon="4.22015">
        <ele>1139</ele>
        <time>2021-06-02T07:44:44Z</time>
      </trkpt>
      <trkpt lat="44.97934" lon="4.22029">
        <ele>1137</ele>
        <time>2021-06-02T07:44:57Z</time>
      </trkpt>
      <trkpt lat="44.97916" lon="4.22029">
        <ele>1136</ele>
        <time>2021-06-02T07:45:00Z</time>
      </trkpt>
      <trkpt lat="44.97817" lon="4.21987">
        <ele>1128</ele>
        <time>2021-06-02T07:45:18Z</time>
      </trkpt>
      <trkpt lat="44.97799" lon="4.21974">
        <ele>1127</ele>
        <time>2021-06-02T07:45:22Z</time>
      </trkpt>
      <trkpt lat="44.97788" lon="4.21959">
        <ele>1126</ele>
        <time>2021-06-02T07:45:25Z</time>
      </trkpt>
      <trkpt lat="44.97785" lon="4.21961">
        <ele>1126</ele>
        <time>2021-06-02T07:45:25Z</time>
      </trkpt>
      <trkpt lat="44.97777" lon="4.21959">
        <ele>1127</ele>
        <time>2021-06-02T07:45:27Z</time>
      </trkpt>
      <trkpt lat="44.97763" lon="4.21982">
        <ele>1129</ele>
        <time>2021-06-02T07:45:30Z</time>
      </trkpt>
      <trkpt lat="44.97777" lon="4.21959">
        <ele>1127</ele>
        <time>2021-06-02T07:45:34Z</time>
      </trkpt>
      <trkpt lat="44.97785" lon="4.21961">
        <ele>1126</ele>
        <time>2021-06-02T07:45:36Z</time>
      </trkpt>
      <trkpt lat="44.97788" lon="4.21959">
        <ele>1126</ele>
        <time>2021-06-02T07:45:36Z</time>
      </trkpt>
      <trkpt lat="44.97782" lon="4.21939">
        <ele>1125</ele>
        <time>2021-06-02T07:45:39Z</time>
      </trkpt>
      <trkpt lat="44.97779" lon="4.21917">
        <ele>1123</ele>
        <time>2021-06-02T07:45:42Z</time>
      </trkpt>
      <trkpt lat="44.97779" lon="4.21861">
        <ele>1120</ele>
        <time>2021-06-02T07:45:49Z</time>
      </trkpt>
      <trkpt lat="44.97778" lon="4.21825">
        <ele>1119</ele>
        <time>2021-06-02T07:45:53Z</time>
      </trkpt>
      <trkpt lat="44.97777" lon="4.21767">
        <ele>1120</ele>
        <time>2021-06-02T07:46:01Z</time>
      </trkpt>
      <trkpt lat="44.97777" lon="4.21757">
        <ele>1120</ele>
        <time>2021-06-02T07:46:02Z</time>
      </trkpt>
      <trkpt lat="44.97774" lon="4.21754">
        <ele>1120</ele>
        <time>2021-06-02T07:46:03Z</time>
      </trkpt>
      <trkpt lat="44.97755" lon="4.21739">
        <ele>1121</ele>
        <time>2021-06-02T07:46:07Z</time>
      </trkpt>
      <trkpt lat="44.97718" lon="4.21713">
        <ele>1124</ele>
        <time>2021-06-02T07:46:14Z</time>
      </trkpt>
      <trkpt lat="44.97613" lon="4.21631">
        <ele>1129</ele>
        <time>2021-06-02T07:46:35Z</time>
      </trkpt>
      <trkpt lat="44.976" lon="4.21619">
        <ele>1129</ele>
        <time>2021-06-02T07:46:38Z</time>
      </trkpt>
      <trkpt lat="44.9759" lon="4.21605">
        <ele>1130</ele>
        <time>2021-06-02T07:46:40Z</time>
      </trkpt>
      <trkpt lat="44.97582" lon="4.2159">
        <ele>1131</ele>
        <time>2021-06-02T07:46:43Z</time>
      </trkpt>
      <trkpt lat="44.97576" lon="4.21572">
        <ele>1132</ele>
        <time>2021-06-02T07:46:45Z</time>
      </trkpt>
      <trkpt lat="44.97539" lon="4.21398">
        <ele>1139</ele>
        <time>2021-06-02T07:47:08Z</time>
      </trkpt>
      <trkpt lat="44.97499" lon="4.2126">
        <ele>1141</ele>
        <time>2021-06-02T07:47:27Z</time>
      </trkpt>
      <trkpt lat="44.97495" lon="4.21241">
        <ele>1142</ele>
        <time>2021-06-02T07:47:29Z</time>
      </trkpt>
      <trkpt lat="44.97472" lon="4.21022">
        <ele>1151</ele>
        <time>2021-06-02T07:47:57Z</time>
      </trkpt>
      <trkpt lat="44.97467" lon="4.20935">
        <ele>1152</ele>
        <time>2021-06-02T07:48:08Z</time>
      </trkpt>
      <trkpt lat="44.97467" lon="4.20911">
        <ele>1152</ele>
        <time>2021-06-02T07:48:11Z</time>
      </trkpt>
      <trkpt lat="44.9747" lon="4.2089">
        <ele>1153</ele>
        <time>2021-06-02T07:48:14Z</time>
      </trkpt>
      <trkpt lat="44.97489" lon="4.20817">
        <ele>1156</ele>
        <time>2021-06-02T07:48:24Z</time>
      </trkpt>
      <trkpt lat="44.97493" lon="4.20793">
        <ele>1157</ele>
        <time>2021-06-02T07:48:27Z</time>
      </trkpt>
      <trkpt lat="44.97498" lon="4.20709">
        <ele>1157</ele>
        <time>2021-06-02T07:48:38Z</time>
      </trkpt>
      <trkpt lat="44.97498" lon="4.20682">
        <ele>1157</ele>
        <time>2021-06-02T07:48:41Z</time>
      </trkpt>
      <trkpt lat="44.97492" lon="4.20642">
        <ele>1157</ele>
        <time>2021-06-02T07:48:46Z</time>
      </trkpt>
      <trkpt lat="44.97484" lon="4.206">
        <ele>1157</ele>
        <time>2021-06-02T07:48:52Z</time>
      </trkpt>
      <trkpt lat="44.97478" lon="4.20581">
        <ele>1157</ele>
        <time>2021-06-02T07:48:54Z</time>
      </trkpt>
      <trkpt lat="44.9747" lon="4.20566">
        <ele>1157</ele>
        <time>2021-06-02T07:48:57Z</time>
      </trkpt>
      <trkpt lat="44.97436" lon="4.20524">
        <ele>1156</ele>
        <time>2021-06-02T07:49:05Z</time>
      </trkpt>
      <trkpt lat="44.97425" lon="4.20506">
        <ele>1156</ele>
        <time>2021-06-02T07:49:08Z</time>
      </trkpt>
      <trkpt lat="44.97403" lon="4.20457">
        <ele>1158</ele>
        <time>2021-06-02T07:49:15Z</time>
      </trkpt>
      <trkpt lat="44.97396" lon="4.20443">
        <ele>1159</ele>
        <time>2021-06-02T07:49:17Z</time>
      </trkpt>
      <trkpt lat="44.97378" lon="4.20443">
        <ele>1158</ele>
        <time>2021-06-02T07:49:20Z</time>
      </trkpt>
      <trkpt lat="44.97356" lon="4.20438">
        <ele>1157</ele>
        <time>2021-06-02T07:49:24Z</time>
      </trkpt>
      <trkpt lat="44.97286" lon="4.20426">
        <ele>1154</ele>
        <time>2021-06-02T07:49:37Z</time>
      </trkpt>
      <trkpt lat="44.97259" lon="4.20422">
        <ele>1152</ele>
        <time>2021-06-02T07:49:42Z</time>
      </trkpt>
      <trkpt lat="44.97215" lon="4.20421">
        <ele>1150</ele>
        <time>2021-06-02T07:49:49Z</time>
      </trkpt>
      <trkpt lat="44.97186" lon="4.20422">
        <ele>1148</ele>
        <time>2021-06-02T07:49:55Z</time>
      </trkpt>
      <trkpt lat="44.97161" lon="4.20423">
        <ele>1147</ele>
        <time>2021-06-02T07:49:59Z</time>
      </trkpt>
      <trkpt lat="44.97134" lon="4.20427">
        <ele>1146</ele>
        <time>2021-06-02T07:50:04Z</time>
      </trkpt>
      <trkpt lat="44.97069" lon="4.20431">
        <ele>1146</ele>
        <time>2021-06-02T07:50:15Z</time>
      </trkpt>
      <trkpt lat="44.97" lon="4.20433">
        <ele>1152</ele>
        <time>2021-06-02T07:50:28Z</time>
      </trkpt>
      <trkpt lat="44.96976" lon="4.20426">
        <ele>1154</ele>
        <time>2021-06-02T07:50:32Z</time>
      </trkpt>
      <trkpt lat="44.96952" lon="4.20411">
        <ele>1156</ele>
        <time>2021-06-02T07:50:37Z</time>
      </trkpt>
      <trkpt lat="44.9693" lon="4.20388">
        <ele>1159</ele>
        <time>2021-06-02T07:50:42Z</time>
      </trkpt>
      <trkpt lat="44.96908" lon="4.20357">
        <ele>1161</ele>
        <time>2021-06-02T07:50:47Z</time>
      </trkpt>
      <trkpt lat="44.96892" lon="4.20337">
        <ele>1163</ele>
        <time>2021-06-02T07:50:51Z</time>
      </trkpt>
      <trkpt lat="44.96829" lon="4.20291">
        <ele>1166</ele>
        <time>2021-06-02T07:51:04Z</time>
      </trkpt>
      <trkpt lat="44.96817" lon="4.20277">
        <ele>1167</ele>
        <time>2021-06-02T07:51:06Z</time>
      </trkpt>
      <trkpt lat="44.96809" lon="4.20263">
        <ele>1167</ele>
        <time>2021-06-02T07:51:09Z</time>
      </trkpt>
      <trkpt lat="44.96777" lon="4.20181">
        <ele>1170</ele>
        <time>2021-06-02T07:51:20Z</time>
      </trkpt>
      <trkpt lat="44.96749" lon="4.20077">
        <ele>1172</ele>
        <time>2021-06-02T07:51:34Z</time>
      </trkpt>
      <trkpt lat="44.96745" lon="4.20054">
        <ele>1173</ele>
        <time>2021-06-02T07:51:37Z</time>
      </trkpt>
      <trkpt lat="44.96741" lon="4.19994">
        <ele>1175</ele>
        <time>2021-06-02T07:51:45Z</time>
      </trkpt>
      <trkpt lat="44.96737" lon="4.19976">
        <ele>1176</ele>
        <time>2021-06-02T07:51:47Z</time>
      </trkpt>
      <trkpt lat="44.96711" lon="4.19908">
        <ele>1181</ele>
        <time>2021-06-02T07:51:57Z</time>
      </trkpt>
      <trkpt lat="44.96702" lon="4.19894">
        <ele>1183</ele>
        <time>2021-06-02T07:51:59Z</time>
      </trkpt>
      <trkpt lat="44.96692" lon="4.19885">
        <ele>1184</ele>
        <time>2021-06-02T07:52:02Z</time>
      </trkpt>
      <trkpt lat="44.96682" lon="4.19883">
        <ele>1185</ele>
        <time>2021-06-02T07:52:03Z</time>
      </trkpt>
      <trkpt lat="44.96664" lon="4.19887">
        <ele>1186</ele>
        <time>2021-06-02T07:52:07Z</time>
      </trkpt>
      <trkpt lat="44.9664" lon="4.19894">
        <ele>1188</ele>
        <time>2021-06-02T07:52:11Z</time>
      </trkpt>
      <trkpt lat="44.96633" lon="4.19897">
        <ele>1189</ele>
        <time>2021-06-02T07:52:12Z</time>
      </trkpt>
      <trkpt lat="44.96621" lon="4.19901">
        <ele>1190</ele>
        <time>2021-06-02T07:52:14Z</time>
      </trkpt>
      <trkpt lat="44.96566" lon="4.1992">
        <ele>1195</ele>
        <time>2021-06-02T07:52:25Z</time>
      </trkpt>
      <trkpt lat="44.96545" lon="4.1993">
        <ele>1197</ele>
        <time>2021-06-02T07:52:28Z</time>
      </trkpt>
      <trkpt lat="44.9646" lon="4.20004">
        <ele>1203</ele>
        <time>2021-06-02T07:52:46Z</time>
      </trkpt>
      <trkpt lat="44.96433" lon="4.20026">
        <ele>1205</ele>
        <time>2021-06-02T07:52:52Z</time>
      </trkpt>
      <trkpt lat="44.96402" lon="4.20046">
        <ele>1207</ele>
        <time>2021-06-02T07:52:58Z</time>
      </trkpt>
      <trkpt lat="44.96375" lon="4.20057">
        <ele>1208</ele>
        <time>2021-06-02T07:53:03Z</time>
      </trkpt>
      <trkpt lat="44.96353" lon="4.20061">
        <ele>1210</ele>
        <time>2021-06-02T07:53:07Z</time>
      </trkpt>
      <trkpt lat="44.96335" lon="4.20058">
        <ele>1212</ele>
        <time>2021-06-02T07:53:10Z</time>
      </trkpt>
      <trkpt lat="44.9632" lon="4.20053">
        <ele>1212</ele>
        <time>2021-06-02T07:53:13Z</time>
      </trkpt>
      <trkpt lat="44.96297" lon="4.20036">
        <ele>1213</ele>
        <time>2021-06-02T07:53:17Z</time>
      </trkpt>
      <trkpt lat="44.96272" lon="4.20014">
        <ele>1216</ele>
        <time>2021-06-02T07:53:23Z</time>
      </trkpt>
      <trkpt lat="44.96244" lon="4.19985">
        <ele>1219</ele>
        <time>2021-06-02T07:53:29Z</time>
      </trkpt>
      <trkpt lat="44.96211" lon="4.19945">
        <ele>1223</ele>
        <time>2021-06-02T07:53:37Z</time>
      </trkpt>
      <trkpt lat="44.96174" lon="4.19895">
        <ele>1228</ele>
        <time>2021-06-02T07:53:46Z</time>
      </trkpt>
      <trkpt lat="44.96143" lon="4.19858">
        <ele>1233</ele>
        <time>2021-06-02T07:53:53Z</time>
      </trkpt>
      <trkpt lat="44.96123" lon="4.19842">
        <ele>1235</ele>
        <time>2021-06-02T07:53:57Z</time>
      </trkpt>
      <trkpt lat="44.96" lon="4.19765">
        <ele>1243</ele>
        <time>2021-06-02T07:54:21Z</time>
      </trkpt>
      <trkpt lat="44.95974" lon="4.19746">
        <ele>1245</ele>
        <time>2021-06-02T07:54:26Z</time>
      </trkpt>
      <trkpt lat="44.95952" lon="4.19729">
        <ele>1246</ele>
        <time>2021-06-02T07:54:31Z</time>
      </trkpt>
      <trkpt lat="44.95933" lon="4.19717">
        <ele>1248</ele>
        <time>2021-06-02T07:54:34Z</time>
      </trkpt>
      <trkpt lat="44.95878" lon="4.19698">
        <ele>1249</ele>
        <time>2021-06-02T07:54:44Z</time>
      </trkpt>
      <trkpt lat="44.95834" lon="4.19677">
        <ele>1251</ele>
        <time>2021-06-02T07:54:53Z</time>
      </trkpt>
      <trkpt lat="44.95816" lon="4.19667">
        <ele>1253</ele>
        <time>2021-06-02T07:54:56Z</time>
      </trkpt>
      <trkpt lat="44.95792" lon="4.19657">
        <ele>1256</ele>
        <time>2021-06-02T07:55:00Z</time>
      </trkpt>
      <trkpt lat="44.95777" lon="4.19653">
        <ele>1258</ele>
        <time>2021-06-02T07:55:03Z</time>
      </trkpt>
      <trkpt lat="44.9576" lon="4.19651">
        <ele>1259</ele>
        <time>2021-06-02T07:55:06Z</time>
      </trkpt>
      <trkpt lat="44.95687" lon="4.19651">
        <ele>1262</ele>
        <time>2021-06-02T07:55:19Z</time>
      </trkpt>
      <trkpt lat="44.95636" lon="4.19648">
        <ele>1265</ele>
        <time>2021-06-02T07:55:28Z</time>
      </trkpt>
      <trkpt lat="44.95557" lon="4.1965">
        <ele>1268</ele>
        <time>2021-06-02T07:55:42Z</time>
      </trkpt>
      <trkpt lat="44.95469" lon="4.19663">
        <ele>1273</ele>
        <time>2021-06-02T07:55:58Z</time>
      </trkpt>
      <trkpt lat="44.95446" lon="4.19671">
        <ele>1274</ele>
        <time>2021-06-02T07:56:02Z</time>
      </trkpt>
      <trkpt lat="44.95416" lon="4.19683">
        <ele>1277</ele>
        <time>2021-06-02T07:56:08Z</time>
      </trkpt>
      <trkpt lat="44.95376" lon="4.19705">
        <ele>1279</ele>
        <time>2021-06-02T07:56:15Z</time>
      </trkpt>
      <trkpt lat="44.95331" lon="4.19735">
        <ele>1282</ele>
        <time>2021-06-02T07:56:24Z</time>
      </trkpt>
      <trkpt lat="44.95298" lon="4.19766">
        <ele>1283</ele>
        <time>2021-06-02T07:56:31Z</time>
      </trkpt>
      <trkpt lat="44.95237" lon="4.19827">
        <ele>1286</ele>
        <time>2021-06-02T07:56:45Z</time>
      </trkpt>
      <trkpt lat="44.95205" lon="4.19858">
        <ele>1287</ele>
        <time>2021-06-02T07:56:52Z</time>
      </trkpt>
      <trkpt lat="44.95191" lon="4.19875">
        <ele>1288</ele>
        <time>2021-06-02T07:56:55Z</time>
      </trkpt>
      <trkpt lat="44.9518" lon="4.19888">
        <ele>1289</ele>
        <time>2021-06-02T07:56:57Z</time>
      </trkpt>
      <trkpt lat="44.95171" lon="4.19899">
        <ele>1290</ele>
        <time>2021-06-02T07:57:00Z</time>
      </trkpt>
      <trkpt lat="44.95145" lon="4.19939">
        <ele>1289</ele>
        <time>2021-06-02T07:57:06Z</time>
      </trkpt>
      <trkpt lat="44.95119" lon="4.19981">
        <ele>1287</ele>
        <time>2021-06-02T07:57:13Z</time>
      </trkpt>
      <trkpt lat="44.95104" lon="4.20017">
        <ele>1287</ele>
        <time>2021-06-02T07:57:19Z</time>
      </trkpt>
      <trkpt lat="44.95084" lon="4.20079">
        <ele>1290</ele>
        <time>2021-06-02T07:57:27Z</time>
      </trkpt>
      <trkpt lat="44.9507" lon="4.20128">
        <ele>1292</ele>
        <time>2021-06-02T07:57:34Z</time>
      </trkpt>
      <trkpt lat="44.9505" lon="4.20214">
        <ele>1295</ele>
        <time>2021-06-02T07:57:45Z</time>
      </trkpt>
      <trkpt lat="44.95038" lon="4.20245">
        <ele>1295</ele>
        <time>2021-06-02T07:57:50Z</time>
      </trkpt>
      <trkpt lat="44.95034" lon="4.20264">
        <ele>1296</ele>
        <time>2021-06-02T07:57:52Z</time>
      </trkpt>
      <trkpt lat="44.95028" lon="4.20282">
        <ele>1296</ele>
        <time>2021-06-02T07:57:55Z</time>
      </trkpt>
      <trkpt lat="44.9502" lon="4.20297">
        <ele>1296</ele>
        <time>2021-06-02T07:57:57Z</time>
      </trkpt>
      <trkpt lat="44.95002" lon="4.20328">
        <ele>1295</ele>
        <time>2021-06-02T07:58:02Z</time>
      </trkpt>
      <trkpt lat="44.94995" lon="4.2035">
        <ele>1296</ele>
        <time>2021-06-02T07:58:05Z</time>
      </trkpt>
      <trkpt lat="44.94987" lon="4.20366">
        <ele>1296</ele>
        <time>2021-06-02T07:58:08Z</time>
      </trkpt>
      <trkpt lat="44.94975" lon="4.20381">
        <ele>1296</ele>
        <time>2021-06-02T07:58:11Z</time>
      </trkpt>
      <trkpt lat="44.94961" lon="4.20409">
        <ele>1297</ele>
        <time>2021-06-02T07:58:15Z</time>
      </trkpt>
      <trkpt lat="44.94953" lon="4.20397">
        <ele>1295</ele>
        <time>2021-06-02T07:58:17Z</time>
      </trkpt>
      <trkpt lat="44.94934" lon="4.20409">
        <ele>1294</ele>
        <time>2021-06-02T07:58:21Z</time>
      </trkpt>
      <trkpt lat="44.94923" lon="4.20421">
        <ele>1294</ele>
        <time>2021-06-02T07:58:23Z</time>
      </trkpt>
      <trkpt lat="44.94903" lon="4.20438">
        <ele>1295</ele>
        <time>2021-06-02T07:58:27Z</time>
      </trkpt>
      <trkpt lat="44.94893" lon="4.20444">
        <ele>1295</ele>
        <time>2021-06-02T07:58:29Z</time>
      </trkpt>
      <trkpt lat="44.9486" lon="4.20455">
        <ele>1295</ele>
        <time>2021-06-02T07:58:35Z</time>
      </trkpt>
      <trkpt lat="44.94851" lon="4.20455">
        <ele>1295</ele>
        <time>2021-06-02T07:58:37Z</time>
      </trkpt>
      <trkpt lat="44.94833" lon="4.2045">
        <ele>1294</ele>
        <time>2021-06-02T07:58:40Z</time>
      </trkpt>
      <trkpt lat="44.94792" lon="4.20435">
        <ele>1294</ele>
        <time>2021-06-02T07:58:48Z</time>
      </trkpt>
      <trkpt lat="44.94755" lon="4.20412">
        <ele>1292</ele>
        <time>2021-06-02T07:58:55Z</time>
      </trkpt>
      <trkpt lat="44.94723" lon="4.20389">
        <ele>1288</ele>
        <time>2021-06-02T07:59:01Z</time>
      </trkpt>
      <trkpt lat="44.94689" lon="4.20379">
        <ele>1286</ele>
        <time>2021-06-02T07:59:07Z</time>
      </trkpt>
      <trkpt lat="44.94675" lon="4.20378">
        <ele>1286</ele>
        <time>2021-06-02T07:59:10Z</time>
      </trkpt>
      <trkpt lat="44.94663" lon="4.20381">
        <ele>1287</ele>
        <time>2021-06-02T07:59:12Z</time>
      </trkpt>
      <trkpt lat="44.94599" lon="4.20409">
        <ele>1287</ele>
        <time>2021-06-02T07:59:24Z</time>
      </trkpt>
      <trkpt lat="44.94557" lon="4.20426">
        <ele>1286</ele>
        <time>2021-06-02T07:59:32Z</time>
      </trkpt>
      <trkpt lat="44.94497" lon="4.20439">
        <ele>1284</ele>
        <time>2021-06-02T07:59:43Z</time>
      </trkpt>
      <trkpt lat="44.94477" lon="4.2044">
        <ele>1285</ele>
        <time>2021-06-02T07:59:46Z</time>
      </trkpt>
      <trkpt lat="44.94457" lon="4.20436">
        <ele>1285</ele>
        <time>2021-06-02T07:59:50Z</time>
      </trkpt>
      <trkpt lat="44.94419" lon="4.20424">
        <ele>1285</ele>
        <time>2021-06-02T07:59:57Z</time>
      </trkpt>
      <trkpt lat="44.94395" lon="4.20413">
        <ele>1286</ele>
        <time>2021-06-02T08:00:01Z</time>
      </trkpt>
      <trkpt lat="44.94332" lon="4.20389">
        <ele>1291</ele>
        <time>2021-06-02T08:00:13Z</time>
      </trkpt>
      <trkpt lat="44.94237" lon="4.20363">
        <ele>1302</ele>
        <time>2021-06-02T08:00:30Z</time>
      </trkpt>
      <trkpt lat="44.94215" lon="4.20353">
        <ele>1304</ele>
        <time>2021-06-02T08:00:34Z</time>
      </trkpt>
      <trkpt lat="44.9416" lon="4.20313">
        <ele>1307</ele>
        <time>2021-06-02T08:00:45Z</time>
      </trkpt>
      <trkpt lat="44.94124" lon="4.20295">
        <ele>1309</ele>
        <time>2021-06-02T08:00:52Z</time>
      </trkpt>
      <trkpt lat="44.94093" lon="4.20283">
        <ele>1311</ele>
        <time>2021-06-02T08:00:58Z</time>
      </trkpt>
      <trkpt lat="44.94073" lon="4.2028">
        <ele>1312</ele>
        <time>2021-06-02T08:01:01Z</time>
      </trkpt>
      <trkpt lat="44.94046" lon="4.2028">
        <ele>1313</ele>
        <time>2021-06-02T08:01:06Z</time>
      </trkpt>
      <trkpt lat="44.94025" lon="4.20283">
        <ele>1315</ele>
        <time>2021-06-02T08:01:10Z</time>
      </trkpt>
      <trkpt lat="44.94005" lon="4.20294">
        <ele>1318</ele>
        <time>2021-06-02T08:01:14Z</time>
      </trkpt>
      <trkpt lat="44.93985" lon="4.20314">
        <ele>1321</ele>
        <time>2021-06-02T08:01:18Z</time>
      </trkpt>
      <trkpt lat="44.9396" lon="4.20343">
        <ele>1324</ele>
        <time>2021-06-02T08:01:24Z</time>
      </trkpt>
      <trkpt lat="44.9392" lon="4.20397">
        <ele>1324</ele>
        <time>2021-06-02T08:01:33Z</time>
      </trkpt>
      <trkpt lat="44.93908" lon="4.20402">
        <ele>1324</ele>
        <time>2021-06-02T08:01:36Z</time>
      </trkpt>
      <trkpt lat="44.93902" lon="4.20402">
        <ele>1324</ele>
        <time>2021-06-02T08:01:37Z</time>
      </trkpt>
      <trkpt lat="44.93874" lon="4.20395">
        <ele>1324</ele>
        <time>2021-06-02T08:01:42Z</time>
      </trkpt>
      <trkpt lat="44.93866" lon="4.20396">
        <ele>1325</ele>
        <time>2021-06-02T08:01:43Z</time>
      </trkpt>
      <trkpt lat="44.93814" lon="4.20414">
        <ele>1327</ele>
        <time>2021-06-02T08:01:53Z</time>
      </trkpt>
      <trkpt lat="44.93749" lon="4.2042">
        <ele>1333</ele>
        <time>2021-06-02T08:02:04Z</time>
      </trkpt>
      <trkpt lat="44.93725" lon="4.20418">
        <ele>1336</ele>
        <time>2021-06-02T08:02:09Z</time>
      </trkpt>
      <trkpt lat="44.93713" lon="4.20413">
        <ele>1338</ele>
        <time>2021-06-02T08:02:11Z</time>
      </trkpt>
      <trkpt lat="44.93702" lon="4.20403">
        <ele>1340</ele>
        <time>2021-06-02T08:02:13Z</time>
      </trkpt>
      <trkpt lat="44.93687" lon="4.20382">
        <ele>1343</ele>
        <time>2021-06-02T08:02:17Z</time>
      </trkpt>
      <trkpt lat="44.93683" lon="4.20381">
        <ele>1344</ele>
        <time>2021-06-02T08:02:18Z</time>
      </trkpt>
      <trkpt lat="44.93687" lon="4.20382">
        <ele>1343</ele>
        <time>2021-06-02T08:02:18Z</time>
      </trkpt>
      <trkpt lat="44.93683" lon="4.2037">
        <ele>1344</ele>
        <time>2021-06-02T08:02:20Z</time>
      </trkpt>
      <trkpt lat="44.9368" lon="4.20356">
        <ele>1345</ele>
        <time>2021-06-02T08:02:22Z</time>
      </trkpt>
      <trkpt lat="44.93674" lon="4.20279">
        <ele>1347</ele>
        <time>2021-06-02T08:02:32Z</time>
      </trkpt>
      <trkpt lat="44.93667" lon="4.2024">
        <ele>1349</ele>
        <time>2021-06-02T08:02:37Z</time>
      </trkpt>
      <trkpt lat="44.93661" lon="4.2021">
        <ele>1349</ele>
        <time>2021-06-02T08:02:41Z</time>
      </trkpt>
      <trkpt lat="44.93639" lon="4.20141">
        <ele>1348</ele>
        <time>2021-06-02T08:02:50Z</time>
      </trkpt>
      <trkpt lat="44.93625" lon="4.20089">
        <ele>1347</ele>
        <time>2021-06-02T08:02:57Z</time>
      </trkpt>
      <trkpt lat="44.93618" lon="4.20048">
        <ele>1347</ele>
        <time>2021-06-02T08:03:03Z</time>
      </trkpt>
      <trkpt lat="44.93613" lon="4.20011">
        <ele>1347</ele>
        <time>2021-06-02T08:03:07Z</time>
      </trkpt>
      <trkpt lat="44.93612" lon="4.20002">
        <ele>1347</ele>
        <time>2021-06-02T08:03:08Z</time>
      </trkpt>
      <trkpt lat="44.93611" lon="4.19965">
        <ele>1349</ele>
        <time>2021-06-02T08:03:13Z</time>
      </trkpt>
      <trkpt lat="44.93613" lon="4.19841">
        <ele>1355</ele>
        <time>2021-06-02T08:03:29Z</time>
      </trkpt>
      <trkpt lat="44.93612" lon="4.19815">
        <ele>1357</ele>
        <time>2021-06-02T08:03:32Z</time>
      </trkpt>
      <trkpt lat="44.93608" lon="4.19789">
        <ele>1358</ele>
        <time>2021-06-02T08:03:35Z</time>
      </trkpt>
      <trkpt lat="44.93601" lon="4.19762">
        <ele>1360</ele>
        <time>2021-06-02T08:03:39Z</time>
      </trkpt>
      <trkpt lat="44.93594" lon="4.19742">
        <ele>1362</ele>
        <time>2021-06-02T08:03:42Z</time>
      </trkpt>
      <trkpt lat="44.93568" lon="4.19687">
        <ele>1369</ele>
        <time>2021-06-02T08:03:50Z</time>
      </trkpt>
      <trkpt lat="44.93549" lon="4.1964">
        <ele>1373</ele>
        <time>2021-06-02T08:03:57Z</time>
      </trkpt>
      <trkpt lat="44.93536" lon="4.19595">
        <ele>1376</ele>
        <time>2021-06-02T08:04:03Z</time>
      </trkpt>
      <trkpt lat="44.93518" lon="4.19519">
        <ele>1381</ele>
        <time>2021-06-02T08:04:13Z</time>
      </trkpt>
      <trkpt lat="44.9351" lon="4.19473">
        <ele>1384</ele>
        <time>2021-06-02T08:04:19Z</time>
      </trkpt>
      <trkpt lat="44.93505" lon="4.19427">
        <ele>1386</ele>
        <time>2021-06-02T08:04:25Z</time>
      </trkpt>
      <trkpt lat="44.93494" lon="4.19375">
        <ele>1388</ele>
        <time>2021-06-02T08:04:32Z</time>
      </trkpt>
      <trkpt lat="44.93473" lon="4.19319">
        <ele>1391</ele>
        <time>2021-06-02T08:04:40Z</time>
      </trkpt>
      <trkpt lat="44.9341" lon="4.19169">
        <ele>1399</ele>
        <time>2021-06-02T08:05:02Z</time>
      </trkpt>
      <trkpt lat="44.93382" lon="4.19105">
        <ele>1403</ele>
        <time>2021-06-02T08:05:11Z</time>
      </trkpt>
      <trkpt lat="44.93375" lon="4.19092">
        <ele>1404</ele>
        <time>2021-06-02T08:05:13Z</time>
      </trkpt>
      <trkpt lat="44.93369" lon="4.19085">
        <ele>1405</ele>
        <time>2021-06-02T08:05:15Z</time>
      </trkpt>
      <trkpt lat="44.93364" lon="4.1908">
        <ele>1406</ele>
        <time>2021-06-02T08:05:16Z</time>
      </trkpt>
      <trkpt lat="44.93358" lon="4.19077">
        <ele>1406</ele>
        <time>2021-06-02T08:05:17Z</time>
      </trkpt>
      <trkpt lat="44.93344" lon="4.19079">
        <ele>1408</ele>
        <time>2021-06-02T08:05:19Z</time>
      </trkpt>
      <trkpt lat="44.93236" lon="4.19147">
        <ele>1417</ele>
        <time>2021-06-02T08:05:40Z</time>
      </trkpt>
      <trkpt lat="44.93225" lon="4.1915">
        <ele>1418</ele>
        <time>2021-06-02T08:05:42Z</time>
      </trkpt>
      <trkpt lat="44.93219" lon="4.1915">
        <ele>1418</ele>
        <time>2021-06-02T08:05:44Z</time>
      </trkpt>
      <trkpt lat="44.93211" lon="4.19146">
        <ele>1419</ele>
        <time>2021-06-02T08:05:45Z</time>
      </trkpt>
      <trkpt lat="44.93205" lon="4.19138">
        <ele>1420</ele>
        <time>2021-06-02T08:05:46Z</time>
      </trkpt>
      <trkpt lat="44.93195" lon="4.19116">
        <ele>1422</ele>
        <time>2021-06-02T08:05:50Z</time>
      </trkpt>
      <trkpt lat="44.93153" lon="4.19001">
        <ele>1433</ele>
        <time>2021-06-02T08:06:06Z</time>
      </trkpt>
      <trkpt lat="44.93148" lon="4.18994">
        <ele>1433</ele>
        <time>2021-06-02T08:06:07Z</time>
      </trkpt>
      <trkpt lat="44.93141" lon="4.1899">
        <ele>1434</ele>
        <time>2021-06-02T08:06:09Z</time>
      </trkpt>
      <trkpt lat="44.93134" lon="4.1899">
        <ele>1435</ele>
        <time>2021-06-02T08:06:10Z</time>
      </trkpt>
      <trkpt lat="44.93125" lon="4.18994">
        <ele>1436</ele>
        <time>2021-06-02T08:06:12Z</time>
      </trkpt>
      <trkpt lat="44.92987" lon="4.19132">
        <ele>1445</ele>
        <time>2021-06-02T08:06:42Z</time>
      </trkpt>
      <trkpt lat="44.92979" lon="4.19136">
        <ele>1445</ele>
        <time>2021-06-02T08:06:43Z</time>
      </trkpt>
      <trkpt lat="44.92967" lon="4.19133">
        <ele>1446</ele>
        <time>2021-06-02T08:06:45Z</time>
      </trkpt>
      <trkpt lat="44.92961" lon="4.19126">
        <ele>1447</ele>
        <time>2021-06-02T08:06:47Z</time>
      </trkpt>
      <trkpt lat="44.92957" lon="4.19116">
        <ele>1448</ele>
        <time>2021-06-02T08:06:48Z</time>
      </trkpt>
      <trkpt lat="44.92951" lon="4.19086">
        <ele>1452</ele>
        <time>2021-06-02T08:06:52Z</time>
      </trkpt>
      <trkpt lat="44.92939" lon="4.19031">
        <ele>1455</ele>
        <time>2021-06-02T08:06:59Z</time>
      </trkpt>
      <trkpt lat="44.92935" lon="4.19019">
        <ele>1455</ele>
        <time>2021-06-02T08:07:01Z</time>
      </trkpt>
      <trkpt lat="44.9293" lon="4.19011">
        <ele>1456</ele>
        <time>2021-06-02T08:07:02Z</time>
      </trkpt>
      <trkpt lat="44.92924" lon="4.19007">
        <ele>1456</ele>
        <time>2021-06-02T08:07:04Z</time>
      </trkpt>
      <trkpt lat="44.92916" lon="4.19006">
        <ele>1457</ele>
        <time>2021-06-02T08:07:05Z</time>
      </trkpt>
      <trkpt lat="44.92906" lon="4.19009">
        <ele>1458</ele>
        <time>2021-06-02T08:07:07Z</time>
      </trkpt>
      <trkpt lat="44.92837" lon="4.19057">
        <ele>1461</ele>
        <time>2021-06-02T08:07:20Z</time>
      </trkpt>
      <trkpt lat="44.92807" lon="4.19072">
        <ele>1462</ele>
        <time>2021-06-02T08:07:26Z</time>
      </trkpt>
      <trkpt lat="44.92741" lon="4.19088">
        <ele>1464</ele>
        <time>2021-06-02T08:07:38Z</time>
      </trkpt>
      <trkpt lat="44.92664" lon="4.19105">
        <ele>1469</ele>
        <time>2021-06-02T08:07:52Z</time>
      </trkpt>
      <trkpt lat="44.92645" lon="4.19107">
        <ele>1471</ele>
        <time>2021-06-02T08:07:55Z</time>
      </trkpt>
      <trkpt lat="44.92631" lon="4.19108">
        <ele>1472</ele>
        <time>2021-06-02T08:07:58Z</time>
      </trkpt>
      <trkpt lat="44.92608" lon="4.19106">
        <ele>1476</ele>
        <time>2021-06-02T08:08:02Z</time>
      </trkpt>
      <trkpt lat="44.92584" lon="4.19097">
        <ele>1480</ele>
        <time>2021-06-02T08:08:06Z</time>
      </trkpt>
      <trkpt lat="44.9257" lon="4.19093">
        <ele>1482</ele>
        <time>2021-06-02T08:08:09Z</time>
      </trkpt>
      <trkpt lat="44.92545" lon="4.19091">
        <ele>1483</ele>
        <time>2021-06-02T08:08:13Z</time>
      </trkpt>
      <trkpt lat="44.92525" lon="4.19084">
        <ele>1485</ele>
        <time>2021-06-02T08:08:17Z</time>
      </trkpt>
      <trkpt lat="44.92518" lon="4.19075">
        <ele>1486</ele>
        <time>2021-06-02T08:08:19Z</time>
      </trkpt>
      <trkpt lat="44.92514" lon="4.19064">
        <ele>1488</ele>
        <time>2021-06-02T08:08:20Z</time>
      </trkpt>
      <trkpt lat="44.92503" lon="4.18979">
        <ele>1494</ele>
        <time>2021-06-02T08:08:31Z</time>
      </trkpt>
      <trkpt lat="44.92499" lon="4.18957">
        <ele>1494</ele>
        <time>2021-06-02T08:08:34Z</time>
      </trkpt>
      <trkpt lat="44.92496" lon="4.1895">
        <ele>1494</ele>
        <time>2021-06-02T08:08:35Z</time>
      </trkpt>
      <trkpt lat="44.9249" lon="4.18942">
        <ele>1495</ele>
        <time>2021-06-02T08:08:36Z</time>
      </trkpt>
      <trkpt lat="44.92484" lon="4.18939">
        <ele>1495</ele>
        <time>2021-06-02T08:08:38Z</time>
      </trkpt>
      <trkpt lat="44.92481" lon="4.18937">
        <ele>1496</ele>
        <time>2021-06-02T08:08:38Z</time>
      </trkpt>
      <trkpt lat="44.92407" lon="4.18926">
        <ele>1500</ele>
        <time>2021-06-02T08:08:51Z</time>
      </trkpt>
      <trkpt lat="44.92362" lon="4.18924">
        <ele>1503</ele>
        <time>2021-06-02T08:08:59Z</time>
      </trkpt>
      <trkpt lat="44.92325" lon="4.18921">
        <ele>1505</ele>
        <time>2021-06-02T08:09:06Z</time>
      </trkpt>
      <trkpt lat="44.92292" lon="4.18914">
        <ele>1507</ele>
        <time>2021-06-02T08:09:12Z</time>
      </trkpt>
      <trkpt lat="44.92253" lon="4.189">
        <ele>1509</ele>
        <time>2021-06-02T08:09:19Z</time>
      </trkpt>
      <trkpt lat="44.9223" lon="4.18889">
        <ele>1512</ele>
        <time>2021-06-02T08:09:23Z</time>
      </trkpt>
      <trkpt lat="44.92209" lon="4.18872">
        <ele>1514</ele>
        <time>2021-06-02T08:09:28Z</time>
      </trkpt>
      <trkpt lat="44.92181" lon="4.18844">
        <ele>1516</ele>
        <time>2021-06-02T08:09:34Z</time>
      </trkpt>
      <trkpt lat="44.92154" lon="4.1881">
        <ele>1519</ele>
        <time>2021-06-02T08:09:40Z</time>
      </trkpt>
      <trkpt lat="44.92125" lon="4.18767">
        <ele>1522</ele>
        <time>2021-06-02T08:09:48Z</time>
      </trkpt>
      <trkpt lat="44.9207" lon="4.18691">
        <ele>1528</ele>
        <time>2021-06-02T08:10:01Z</time>
      </trkpt>
      <trkpt lat="44.92053" lon="4.18663">
        <ele>1530</ele>
        <time>2021-06-02T08:10:06Z</time>
      </trkpt>
      <trkpt lat="44.92016" lon="4.18599">
        <ele>1532</ele>
        <time>2021-06-02T08:10:17Z</time>
      </trkpt>
      <trkpt lat="44.91962" lon="4.18501">
        <ele>1533</ele>
        <time>2021-06-02T08:10:32Z</time>
      </trkpt>
      <trkpt lat="44.91948" lon="4.18478">
        <ele>1533</ele>
        <time>2021-06-02T08:10:36Z</time>
      </trkpt>
      <trkpt lat="44.91932" lon="4.18459">
        <ele>1534</ele>
        <time>2021-06-02T08:10:40Z</time>
      </trkpt>
      <trkpt lat="44.91886" lon="4.18411">
        <ele>1535</ele>
        <time>2021-06-02T08:10:50Z</time>
      </trkpt>
      <trkpt lat="44.91826" lon="4.18313">
        <ele>1537</ele>
        <time>2021-06-02T08:11:06Z</time>
      </trkpt>
      <trkpt lat="44.91794" lon="4.18258">
        <ele>1542</ele>
        <time>2021-06-02T08:11:15Z</time>
      </trkpt>
      <trkpt lat="44.91632" lon="4.17961">
        <ele>1565</ele>
        <time>2021-06-02T08:12:02Z</time>
      </trkpt>
      <trkpt lat="44.91622" lon="4.17939">
        <ele>1566</ele>
        <time>2021-06-02T08:12:06Z</time>
      </trkpt>
      <trkpt lat="44.91616" lon="4.17921">
        <ele>1567</ele>
        <time>2021-06-02T08:12:08Z</time>
      </trkpt>
      <trkpt lat="44.91605" lon="4.17876">
        <ele>1568</ele>
        <time>2021-06-02T08:12:14Z</time>
      </trkpt>
      <trkpt lat="44.91601" lon="4.17858">
        <ele>1568</ele>
        <time>2021-06-02T08:12:17Z</time>
      </trkpt>
      <trkpt lat="44.91596" lon="4.17836">
        <ele>1568</ele>
        <time>2021-06-02T08:12:20Z</time>
      </trkpt>
      <trkpt lat="44.91567" lon="4.17707">
        <ele>1561</ele>
        <time>2021-06-02T08:12:37Z</time>
      </trkpt>
      <trkpt lat="44.91551" lon="4.1761">
        <ele>1554</ele>
        <time>2021-06-02T08:12:49Z</time>
      </trkpt>
      <trkpt lat="44.91544" lon="4.1758">
        <ele>1552</ele>
        <time>2021-06-02T08:12:53Z</time>
      </trkpt>
      <trkpt lat="44.91535" lon="4.1755">
        <ele>1551</ele>
        <time>2021-06-02T08:12:57Z</time>
      </trkpt>
      <trkpt lat="44.91491" lon="4.1742">
        <ele>1546</ele>
        <time>2021-06-02T08:13:15Z</time>
      </trkpt>
      <trkpt lat="44.91478" lon="4.17362">
        <ele>1544</ele>
        <time>2021-06-02T08:13:23Z</time>
      </trkpt>
      <trkpt lat="44.91411" lon="4.17118">
        <ele>1528</ele>
        <time>2021-06-02T08:13:56Z</time>
      </trkpt>
      <trkpt lat="44.91394" lon="4.17063">
        <ele>1526</ele>
        <time>2021-06-02T08:14:04Z</time>
      </trkpt>
      <trkpt lat="44.9138" lon="4.17029">
        <ele>1524</ele>
        <time>2021-06-02T08:14:09Z</time>
      </trkpt>
      <trkpt lat="44.9134" lon="4.1696">
        <ele>1517</ele>
        <time>2021-06-02T08:14:20Z</time>
      </trkpt>
      <trkpt lat="44.91329" lon="4.16938">
        <ele>1515</ele>
        <time>2021-06-02T08:14:23Z</time>
      </trkpt>
      <trkpt lat="44.91322" lon="4.16911">
        <ele>1514</ele>
        <time>2021-06-02T08:14:27Z</time>
      </trkpt>
      <trkpt lat="44.91318" lon="4.1689">
        <ele>1513</ele>
        <time>2021-06-02T08:14:30Z</time>
      </trkpt>
      <trkpt lat="44.91308" lon="4.16891">
        <ele>1512</ele>
        <time>2021-06-02T08:14:31Z</time>
      </trkpt>
      <trkpt lat="44.91285" lon="4.16907">
        <ele>1509</ele>
        <time>2021-06-02T08:14:36Z</time>
      </trkpt>
      <trkpt lat="44.91276" lon="4.16919">
        <ele>1508</ele>
        <time>2021-06-02T08:14:38Z</time>
      </trkpt>
      <trkpt lat="44.91266" lon="4.16939">
        <ele>1507</ele>
        <time>2021-06-02T08:14:41Z</time>
      </trkpt>
      <trkpt lat="44.91236" lon="4.17037">
        <ele>1504</ele>
        <time>2021-06-02T08:14:55Z</time>
      </trkpt>
      <trkpt lat="44.91223" lon="4.17058">
        <ele>1503</ele>
        <time>2021-06-02T08:14:58Z</time>
      </trkpt>
      <trkpt lat="44.91168" lon="4.17128">
        <ele>1498</ele>
        <time>2021-06-02T08:15:11Z</time>
      </trkpt>
      <trkpt lat="44.91134" lon="4.17164">
        <ele>1496</ele>
        <time>2021-06-02T08:15:19Z</time>
      </trkpt>
      <trkpt lat="44.91112" lon="4.17181">
        <ele>1495</ele>
        <time>2021-06-02T08:15:23Z</time>
      </trkpt>
      <trkpt lat="44.91091" lon="4.17191">
        <ele>1495</ele>
        <time>2021-06-02T08:15:27Z</time>
      </trkpt>
      <trkpt lat="44.90899" lon="4.17249">
        <ele>1484</ele>
        <time>2021-06-02T08:16:02Z</time>
      </trkpt>
      <trkpt lat="44.90882" lon="4.17259">
        <ele>1483</ele>
        <time>2021-06-02T08:16:05Z</time>
      </trkpt>
      <trkpt lat="44.908" lon="4.17328">
        <ele>1480</ele>
        <time>2021-06-02T08:16:22Z</time>
      </trkpt>
      <trkpt lat="44.90783" lon="4.17339">
        <ele>1480</ele>
        <time>2021-06-02T08:16:26Z</time>
      </trkpt>
      <trkpt lat="44.90765" lon="4.17344">
        <ele>1479</ele>
        <time>2021-06-02T08:16:29Z</time>
      </trkpt>
      <trkpt lat="44.90748" lon="4.17344">
        <ele>1478</ele>
        <time>2021-06-02T08:16:32Z</time>
      </trkpt>
      <trkpt lat="44.90734" lon="4.1734">
        <ele>1477</ele>
        <time>2021-06-02T08:16:35Z</time>
      </trkpt>
      <trkpt lat="44.90696" lon="4.17316">
        <ele>1474</ele>
        <time>2021-06-02T08:16:42Z</time>
      </trkpt>
      <trkpt lat="44.90673" lon="4.17304">
        <ele>1472</ele>
        <time>2021-06-02T08:16:46Z</time>
      </trkpt>
      <trkpt lat="44.90658" lon="4.173">
        <ele>1471</ele>
        <time>2021-06-02T08:16:49Z</time>
      </trkpt>
      <trkpt lat="44.90634" lon="4.173">
        <ele>1470</ele>
        <time>2021-06-02T08:16:53Z</time>
      </trkpt>
      <trkpt lat="44.90525" lon="4.17323">
        <ele>1464</ele>
        <time>2021-06-02T08:17:13Z</time>
      </trkpt>
      <trkpt lat="44.90426" lon="4.17366">
        <ele>1460</ele>
        <time>2021-06-02T08:17:31Z</time>
      </trkpt>
      <trkpt lat="44.9038" lon="4.17389">
        <ele>1457</ele>
        <time>2021-06-02T08:17:40Z</time>
      </trkpt>
      <trkpt lat="44.90297" lon="4.17439">
        <ele>1455</ele>
        <time>2021-06-02T08:17:56Z</time>
      </trkpt>
      <trkpt lat="44.90278" lon="4.17444">
        <ele>1454</ele>
        <time>2021-06-02T08:18:00Z</time>
      </trkpt>
      <trkpt lat="44.90254" lon="4.17447">
        <ele>1453</ele>
        <time>2021-06-02T08:18:04Z</time>
      </trkpt>
      <trkpt lat="44.90239" lon="4.17443">
        <ele>1451</ele>
        <time>2021-06-02T08:18:07Z</time>
      </trkpt>
      <trkpt lat="44.90225" lon="4.17437">
        <ele>1450</ele>
        <time>2021-06-02T08:18:09Z</time>
      </trkpt>
      <trkpt lat="44.9043" lon="4.16705">
        <ele>1409</ele>
        <time>2021-06-02T08:19:48Z</time>
      </trkpt>
      <trkpt lat="44.90442" lon="4.16656">
        <ele>1407</ele>
        <time>2021-06-02T08:19:55Z</time>
      </trkpt>
      <trkpt lat="44.9052" lon="4.16296">
        <ele>1384</ele>
        <time>2021-06-02T08:20:42Z</time>
      </trkpt>
      <trkpt lat="44.90522" lon="4.16276">
        <ele>1383</ele>
        <time>2021-06-02T08:20:45Z</time>
      </trkpt>
      <trkpt lat="44.90522" lon="4.1625">
        <ele>1381</ele>
        <time>2021-06-02T08:20:48Z</time>
      </trkpt>
      <trkpt lat="44.90521" lon="4.16143">
        <ele>1377</ele>
        <time>2021-06-02T08:21:02Z</time>
      </trkpt>
      <trkpt lat="44.90521" lon="4.16106">
        <ele>1377</ele>
        <time>2021-06-02T08:21:06Z</time>
      </trkpt>
      <trkpt lat="44.90525" lon="4.16057">
        <ele>1375</ele>
        <time>2021-06-02T08:21:13Z</time>
      </trkpt>
      <trkpt lat="44.90525" lon="4.16044">
        <ele>1374</ele>
        <time>2021-06-02T08:21:14Z</time>
      </trkpt>
      <trkpt lat="44.90529" lon="4.15998">
        <ele>1371</ele>
        <time>2021-06-02T08:21:20Z</time>
      </trkpt>
      <trkpt lat="44.90529" lon="4.15973">
        <ele>1371</ele>
        <time>2021-06-02T08:21:23Z</time>
      </trkpt>
      <trkpt lat="44.90528" lon="4.1596">
        <ele>1370</ele>
        <time>2021-06-02T08:21:25Z</time>
      </trkpt>
      <trkpt lat="44.90524" lon="4.15949">
        <ele>1369</ele>
        <time>2021-06-02T08:21:26Z</time>
      </trkpt>
      <trkpt lat="44.90518" lon="4.1594">
        <ele>1368</ele>
        <time>2021-06-02T08:21:28Z</time>
      </trkpt>
      <trkpt lat="44.90508" lon="4.15931">
        <ele>1366</ele>
        <time>2021-06-02T08:21:30Z</time>
      </trkpt>
      <trkpt lat="44.90492" lon="4.15924">
        <ele>1365</ele>
        <time>2021-06-02T08:21:33Z</time>
      </trkpt>
      <trkpt lat="44.90483" lon="4.15927">
        <ele>1364</ele>
        <time>2021-06-02T08:21:35Z</time>
      </trkpt>
      <trkpt lat="44.90466" lon="4.15944">
        <ele>1363</ele>
        <time>2021-06-02T08:21:38Z</time>
      </trkpt>
      <trkpt lat="44.90433" lon="4.15997">
        <ele>1362</ele>
        <time>2021-06-02T08:21:47Z</time>
      </trkpt>
      <trkpt lat="44.90424" lon="4.16006">
        <ele>1362</ele>
        <time>2021-06-02T08:21:49Z</time>
      </trkpt>
      <trkpt lat="44.90415" lon="4.1601">
        <ele>1361</ele>
        <time>2021-06-02T08:21:51Z</time>
      </trkpt>
      <trkpt lat="44.90405" lon="4.16011">
        <ele>1360</ele>
        <time>2021-06-02T08:21:53Z</time>
      </trkpt>
      <trkpt lat="44.904" lon="4.16011">
        <ele>1359</ele>
        <time>2021-06-02T08:21:54Z</time>
      </trkpt>
      <trkpt lat="44.90388" lon="4.16005">
        <ele>1358</ele>
        <time>2021-06-02T08:21:56Z</time>
      </trkpt>
      <trkpt lat="44.90376" lon="4.15986">
        <ele>1356</ele>
        <time>2021-06-02T08:21:59Z</time>
      </trkpt>
      <trkpt lat="44.90372" lon="4.15971">
        <ele>1355</ele>
        <time>2021-06-02T08:22:01Z</time>
      </trkpt>
      <trkpt lat="44.90371" lon="4.15955">
        <ele>1355</ele>
        <time>2021-06-02T08:22:03Z</time>
      </trkpt>
      <trkpt lat="44.90373" lon="4.15932">
        <ele>1355</ele>
        <time>2021-06-02T08:22:06Z</time>
      </trkpt>
      <trkpt lat="44.90375" lon="4.15907">
        <ele>1354</ele>
        <time>2021-06-02T08:22:09Z</time>
      </trkpt>
      <trkpt lat="44.90377" lon="4.15888">
        <ele>1354</ele>
        <time>2021-06-02T08:22:12Z</time>
      </trkpt>
      <trkpt lat="44.90378" lon="4.15877">
        <ele>1354</ele>
        <time>2021-06-02T08:22:13Z</time>
      </trkpt>
      <trkpt lat="44.9038" lon="4.15852">
        <ele>1354</ele>
        <time>2021-06-02T08:22:16Z</time>
      </trkpt>
      <trkpt lat="44.90383" lon="4.15832">
        <ele>1354</ele>
        <time>2021-06-02T08:22:19Z</time>
      </trkpt>
      <trkpt lat="44.90383" lon="4.1583">
        <ele>1354</ele>
        <time>2021-06-02T08:22:19Z</time>
      </trkpt>
      <trkpt lat="44.9039" lon="4.15786">
        <ele>1354</ele>
        <time>2021-06-02T08:22:25Z</time>
      </trkpt>
      <trkpt lat="44.9039" lon="4.15776">
        <ele>1354</ele>
        <time>2021-06-02T08:22:26Z</time>
      </trkpt>
      <trkpt lat="44.9039" lon="4.15769">
        <ele>1354</ele>
        <time>2021-06-02T08:22:27Z</time>
      </trkpt>
      <trkpt lat="44.90385" lon="4.15754">
        <ele>1353</ele>
        <time>2021-06-02T08:22:29Z</time>
      </trkpt>
      <trkpt lat="44.90371" lon="4.15726">
        <ele>1351</ele>
        <time>2021-06-02T08:22:33Z</time>
      </trkpt>
      <trkpt lat="44.90369" lon="4.15708">
        <ele>1350</ele>
        <time>2021-06-02T08:22:36Z</time>
      </trkpt>
      <trkpt lat="44.90369" lon="4.15682">
        <ele>1349</ele>
        <time>2021-06-02T08:22:39Z</time>
      </trkpt>
      <trkpt lat="44.90369" lon="4.15664">
        <ele>1348</ele>
        <time>2021-06-02T08:22:41Z</time>
      </trkpt>
      <trkpt lat="44.9037" lon="4.1563">
        <ele>1346</ele>
        <time>2021-06-02T08:22:45Z</time>
      </trkpt>
      <trkpt lat="44.90372" lon="4.1561">
        <ele>1346</ele>
        <time>2021-06-02T08:22:48Z</time>
      </trkpt>
      <trkpt lat="44.90376" lon="4.15594">
        <ele>1345</ele>
        <time>2021-06-02T08:22:50Z</time>
      </trkpt>
      <trkpt lat="44.90367" lon="4.15583">
        <ele>1344</ele>
        <time>2021-06-02T08:22:52Z</time>
      </trkpt>
      <trkpt lat="44.90361" lon="4.15578">
        <ele>1343</ele>
        <time>2021-06-02T08:22:53Z</time>
      </trkpt>
      <trkpt lat="44.9037" lon="4.15557">
        <ele>1343</ele>
        <time>2021-06-02T08:22:57Z</time>
      </trkpt>
    </trkseg>
  </trk>
</gpx>